This is the latest recevied weather packets stored in our database for station/object SP1BMW-13. If no packets are shown the sender has not sent any weather packets the latest 10 day(s).
| Time | Temp. | Humidity | Pressure | Rain* | Wind** | Luminosity | Snow |
|---|---|---|---|---|---|---|---|
| 1787384882 | 17.78° C | 78% | 1008.1 hPa | 0 mm | 1.79 m/s, 207° | 139 W/m² | - |
| 1787384822 | 17.78° C | 80% | 1008.1 hPa | 0 mm | 0.89 m/s, 275° | 303 W/m² | - |
| 1787384762 | 17.78° C | 80% | 1008.1 hPa | 0 mm | 0.89 m/s, 281° | 411 W/m² | - |
| 1787384705 | 17.78° C | 80% | 1007.9 hPa | 0 mm | 0.89 m/s, 196° | 108 W/m² | - |
| 1787384642 | 17.78° C | 81% | 1008 hPa | 0 mm | 0.89 m/s, 299° | 106 W/m² | - |
| 1787384583 | 17.78° C | 81% | 1007.9 hPa | 0 mm | 1.34 m/s, 106° | 341 W/m² | - |
| 1787384522 | 17.78° C | 80% | 1008 hPa | 0 mm | 1.79 m/s, 245° | 166 W/m² | - |
| 1787384463 | 17.78° C | 80% | 1008.1 hPa | 0 mm | 1.34 m/s, 270° | 401 W/m² | - |
| 1787384402 | 17.78° C | 80% | 1007.9 hPa | 0 mm | 0.89 m/s, 255° | 272 W/m² | - |
| 1787384342 | 17.78° C | 80% | 1007.9 hPa | 0 mm | 1.79 m/s, 179° | 265 W/m² | - |
| 1787384283 | 17.78° C | 83% | 1007.9 hPa | 0 mm | 1.79 m/s, 200° | 394 W/m² | - |
| 1787384222 | 17.78° C | 82% | 1007.9 hPa | 0 mm | 1.34 m/s, 261° | 381 W/m² | - |
| 1787384162 | 17.78° C | 81% | 1007.9 hPa | 0 mm | 3.13 m/s, 244° | 351 W/m² | - |
| 1787384102 | 17.78° C | 80% | 1007.7 hPa | 0 mm | 2.24 m/s, 268° | 143 W/m² | - |
| 1787384042 | 17.78° C | 81% | 1007.9 hPa | 0 mm | 1.79 m/s, 262° | 236 W/m² | - |
| 1787383982 | 17.78° C | 81% | 1007.8 hPa | 0 mm | 1.79 m/s, 228° | 376 W/m² | - |
| 1787383925 | 17.78° C | 80% | 1007.6 hPa | 0 mm | 2.68 m/s, 203° | 209 W/m² | - |
| 1787383862 | 17.78° C | 81% | 1007.9 hPa | 0 mm | 0.89 m/s, 275° | 135 W/m² | - |
| 1787383802 | 17.78° C | 81% | 1007.8 hPa | 0 mm | 1.79 m/s, 202° | 153 W/m² | - |
| 1787383742 | 17.78° C | 81% | 1007.7 hPa | 0 mm | 0.89 m/s, 233° | 278 W/m² | - |
| 1787383683 | 17.78° C | 80% | 1007.8 hPa | 0 mm | 2.24 m/s, 285° | 154 W/m² | - |
| 1787383622 | 17.78° C | 81% | 1007.7 hPa | 0 mm | 1.79 m/s, 189° | 270 W/m² | - |
| 1787383562 | 17.78° C | 82% | 1007.9 hPa | 0 mm | 1.79 m/s, 278° | 364 W/m² | - |
| 1787383502 | 17.78° C | 82% | 1007.8 hPa | 0 mm | 2.24 m/s, 228° | 158 W/m² | - |
| 1787383442 | 17.78° C | 83% | 1007.4 hPa | 0 mm | 2.24 m/s, 215° | 350 W/m² | - |
* Rain latest hour (hover to see other rain measurements)
** Current wind speed in m/s (hover to see current wind gust speed)